createdAt,value
2018-09-15T00:01:58.871Z,5.65
2018-09-15T00:06:52.550Z,6.00
2018-09-15T00:11:45.579Z,6.35
2018-09-15T00:16:38.657Z,5.97
2018-09-15T00:21:31.713Z,6.05
2018-09-15T00:26:25.487Z,6.42
2018-09-15T00:31:18.490Z,6.58
2018-09-15T00:36:12.014Z,6.17
2018-09-15T00:41:05.534Z,7.22
2018-09-15T00:45:58.681Z,5.90
2018-09-15T00:50:51.883Z,6.10
2018-09-15T00:55:44.905Z,6.83
2018-09-15T01:00:38.695Z,6.60
2018-09-15T01:05:31.691Z,6.58
2018-09-15T01:10:24.719Z,6.50
2018-09-15T01:15:17.851Z,6.53
2018-09-15T01:20:11.289Z,6.40
2018-09-15T01:25:04.663Z,6.60
2018-09-15T01:29:57.783Z,7.00
2018-09-15T01:34:50.779Z,7.10
2018-09-15T01:39:43.868Z,7.20
2018-09-15T01:44:36.851Z,6.70
2018-09-15T01:49:29.934Z,6.30
2018-09-15T01:54:23.086Z,6.95
2018-09-15T01:59:16.418Z,6.95
2018-09-15T02:04:09.935Z,6.85
2018-09-15T02:09:03.936Z,6.90
2018-09-15T02:13:57.644Z,6.92
2018-09-15T02:18:50.718Z,6.50
2018-09-15T02:23:44.127Z,7.20
2018-09-15T02:28:37.134Z,6.90
2018-09-15T02:33:30.213Z,7.08
2018-09-15T02:38:24.302Z,7.35
2018-09-15T02:43:17.303Z,6.47
2018-09-15T02:48:10.481Z,6.65
2018-09-15T02:53:03.761Z,6.62
2018-09-15T02:57:57.286Z,6.70
2018-09-15T03:02:50.467Z,6.55
2018-09-15T03:07:43.582Z,6.90
2018-09-15T03:12:36.841Z,7.00
2018-09-15T03:17:30.050Z,6.95
2018-09-15T03:22:23.811Z,7.17
2018-09-15T03:27:16.907Z,7.10
2018-09-15T03:32:09.899Z,7.30
2018-09-15T03:37:03.016Z,6.83
2018-09-15T03:41:55.999Z,7.15
2018-09-15T03:46:49.079Z,7.03
2018-09-15T03:51:42.230Z,7.25
2018-09-15T03:56:35.304Z,7.33
2018-09-15T04:01:28.401Z,7.12
2018-09-15T04:06:21.446Z,6.60
2018-09-15T04:11:15.104Z,7.40
2018-09-15T04:16:08.320Z,6.87
2018-09-15T04:21:01.344Z,6.75
2018-09-15T04:25:54.267Z,6.90
2018-09-15T04:30:47.593Z,6.83
2018-09-15T04:35:44.159Z,6.80
2018-09-15T04:40:37.291Z,6.92
2018-09-15T04:45:30.626Z,7.05
2018-09-15T04:50:23.908Z,7.17
2018-09-15T04:55:17.364Z,7.22
2018-09-15T05:00:10.351Z,6.83
2018-09-15T05:05:03.530Z,7.55
2018-09-15T05:09:56.686Z,7.10
2018-09-15T05:14:49.739Z,7.45
2018-09-15T05:19:42.964Z,7.50
2018-09-15T05:24:36.416Z,7.20
2018-09-15T05:29:29.504Z,7.62
2018-09-15T05:34:22.934Z,7.10
2018-09-15T05:39:16.084Z,6.95
2018-09-15T05:44:09.219Z,7.03
2018-09-15T05:49:02.423Z,7.30
2018-09-15T05:53:55.747Z,6.83
2018-09-15T05:58:48.963Z,7.10
2018-09-15T06:03:42.218Z,7.00
2018-09-15T06:08:35.316Z,6.67
2018-09-15T06:13:29.179Z,6.75
2018-09-15T06:18:22.242Z,6.70
2018-09-15T06:23:15.475Z,6.90
2018-09-15T06:28:08.663Z,7.00
2018-09-15T06:33:02.101Z,7.17
2018-09-15T06:37:55.315Z,6.70
2018-09-15T06:42:48.456Z,6.53
2018-09-15T06:47:41.469Z,6.78
2018-09-15T06:52:34.883Z,6.40
2018-09-15T06:57:27.931Z,6.55
2018-09-15T07:02:20.972Z,6.42
2018-09-15T07:07:14.200Z,6.33
2018-09-15T07:12:07.358Z,6.67
2018-09-15T07:17:00.816Z,6.60
2018-09-15T07:21:53.823Z,7.37
2018-09-15T07:26:47.002Z,8.85
2018-09-15T07:31:40.943Z,6.92
2018-09-15T07:36:34.383Z,7.28
2018-09-15T07:41:27.967Z,6.92
2018-09-15T07:46:21.349Z,6.75
2018-09-15T07:51:15.458Z,21.30
2018-09-15T07:56:09.942Z,7.08
2018-09-15T08:01:03.009Z,7.53
2018-09-15T08:06:01.000Z,7.08
2018-09-15T08:10:54.146Z,6.92
2018-09-15T08:15:47.286Z,8.73
2018-09-15T08:20:40.421Z,8.43
2018-09-15T08:25:33.564Z,9.18
2018-09-15T08:30:27.164Z,9.73
2018-09-15T08:35:20.287Z,8.28
2018-09-15T08:40:13.382Z,8.73
2018-09-15T08:45:06.603Z,8.58
2018-09-15T08:50:00.289Z,9.20
2018-09-15T08:54:53.483Z,9.35
2018-09-15T08:59:46.553Z,9.58
2018-09-15T09:04:39.671Z,9.50
2018-09-15T09:09:32.698Z,9.78
2018-09-15T09:14:26.119Z,9.00
2018-09-15T09:19:19.155Z,8.93
2018-09-15T09:24:12.177Z,7.08
2018-09-15T09:29:05.266Z,7.42
2018-09-15T09:33:58.502Z,6.92
2018-09-15T09:38:51.622Z,6.80
2018-09-15T09:43:44.825Z,6.67
2018-09-15T09:48:37.906Z,7.10
2018-09-15T09:53:31.060Z,6.90
2018-09-15T09:58:24.042Z,7.75
2018-09-15T10:03:17.096Z,7.90
2018-09-15T10:08:10.534Z,6.78
2018-09-15T10:13:03.675Z,7.15
2018-09-15T10:17:56.799Z,7.40
2018-09-15T10:22:50.031Z,6.70
2018-09-15T10:27:43.227Z,7.58
2018-09-15T10:32:36.846Z,7.35
2018-09-15T10:37:31.040Z,7.58
2018-09-15T10:42:24.188Z,7.05
2018-09-15T10:47:17.309Z,6.58
2018-09-15T10:52:10.344Z,7.10
2018-09-15T10:57:03.752Z,6.90
2018-09-15T11:01:57.240Z,6.95
2018-09-15T11:06:50.241Z,7.05
2018-09-15T11:11:43.654Z,6.42
2018-09-15T11:16:36.830Z,6.58
2018-09-15T11:21:30.019Z,6.33
2018-09-15T11:26:23.357Z,5.92
2018-09-15T11:31:16.604Z,5.78
2018-09-15T11:36:09.668Z,6.20
2018-09-15T11:41:02.763Z,5.90
2018-09-15T11:45:56.292Z,6.12
2018-09-15T11:50:49.351Z,5.80
2018-09-15T11:55:42.595Z,6.10
2018-09-15T12:00:38.313Z,6.35
2018-09-15T12:05:31.427Z,6.12
2018-09-15T12:10:24.451Z,6.00
2018-09-15T12:15:17.655Z,5.92
2018-09-15T12:20:10.747Z,6.03
2018-09-15T12:25:03.958Z,5.75
2018-09-15T12:29:57.053Z,5.65
2018-09-15T12:34:50.223Z,6.00
2018-09-15T12:39:43.442Z,5.95
2018-09-15T12:44:36.668Z,5.75
2018-09-15T12:49:29.741Z,5.50
2018-09-15T12:54:22.945Z,6.45
2018-09-15T12:59:16.212Z,5.87
2018-09-15T13:04:09.311Z,5.42
2018-09-15T13:09:02.483Z,5.83
2018-09-15T13:13:55.689Z,5.70
2018-09-15T13:18:48.895Z,5.72
2018-09-15T13:23:42.069Z,5.92
2018-09-15T13:28:35.296Z,6.33
2018-09-15T13:33:28.396Z,5.60
2018-09-15T13:38:21.474Z,5.60
2018-09-15T13:43:14.644Z,5.60
2018-09-15T13:48:07.722Z,5.50
2018-09-15T13:53:00.741Z,5.60
2018-09-15T13:57:53.932Z,5.60
2018-09-15T14:02:47.069Z,5.60
2018-09-15T14:07:40.712Z,5.50
2018-09-15T14:12:33.958Z,5.95
2018-09-15T14:17:28.078Z,5.62
2018-09-15T14:22:21.605Z,5.97
2018-09-15T14:27:17.349Z,5.05
2018-09-15T14:32:10.523Z,5.42
2018-09-15T14:37:03.717Z,5.35
2018-09-15T14:41:56.904Z,4.75
2018-09-15T14:46:50.112Z,5.47
2018-09-15T14:51:43.205Z,5.60
2018-09-15T14:56:36.347Z,5.20
2018-09-15T15:01:29.576Z,4.67
2018-09-15T15:06:22.695Z,4.65
2018-09-15T15:11:16.081Z,5.50
2018-09-15T15:16:09.358Z,5.10
2018-09-15T15:21:02.859Z,4.83
2018-09-15T15:25:57.027Z,4.87
2018-09-15T15:30:50.188Z,5.22
2018-09-15T15:35:43.204Z,5.12
2018-09-15T15:40:37.381Z,4.97
2018-09-15T15:45:30.641Z,4.90
2018-09-15T15:50:23.852Z,5.75
2018-09-15T15:55:17.065Z,5.67
2018-09-15T16:00:10.177Z,4.87
2018-09-15T16:05:03.363Z,5.05
2018-09-15T16:09:56.488Z,4.55
2018-09-15T16:14:49.591Z,5.05
2018-09-15T16:19:42.793Z,5.20
2018-09-15T16:24:37.026Z,4.60
2018-09-15T16:29:32.937Z,4.87
2018-09-15T16:34:26.435Z,5.22
2018-09-15T16:39:21.242Z,5.78
2018-09-15T16:44:14.383Z,5.05
2018-09-15T16:49:07.939Z,5.47
2018-09-15T16:54:01.287Z,5.22
2018-09-15T16:58:54.369Z,5.37
2018-09-15T17:03:47.625Z,5.40
2018-09-15T17:08:41.019Z,5.90
2018-09-15T17:13:34.138Z,5.28
2018-09-15T17:18:28.839Z,4.87
2018-09-15T17:23:22.111Z,5.35
2018-09-15T17:28:15.383Z,6.33
2018-09-15T17:33:08.830Z,5.50
2018-09-15T17:38:01.898Z,5.35
2018-09-15T17:42:55.522Z,5.28
2018-09-15T17:47:48.704Z,5.20
2018-09-15T17:52:42.083Z,5.03
2018-09-15T17:57:35.637Z,4.90
2018-09-15T18:02:38.679Z,5.25
2018-09-15T18:07:32.463Z,5.65
2018-09-15T18:12:28.098Z,5.75
2018-09-15T18:17:25.350Z,6.10
2018-09-15T18:22:18.821Z,6.00
2018-09-15T18:27:13.250Z,6.35
2018-09-15T18:32:07.348Z,6.70
2018-09-15T18:37:03.278Z,6.90
2018-09-15T18:41:56.778Z,7.55
2018-09-15T18:46:50.942Z,7.33
2018-09-15T18:51:44.252Z,6.95
2018-09-15T18:56:38.886Z,7.53
2018-09-15T19:01:32.617Z,6.97
2018-09-15T19:06:27.584Z,7.50
2018-09-15T19:11:25.429Z,7.10
2018-09-15T19:16:21.296Z,7.72
2018-09-15T19:21:15.877Z,7.65
2018-09-15T19:26:09.968Z,7.83
2018-09-15T19:31:04.637Z,7.42
2018-09-15T19:35:58.377Z,7.60
2018-09-15T19:40:52.884Z,7.67
2018-09-15T19:45:46.743Z,7.75
2018-09-15T19:50:42.546Z,7.50
2018-09-15T19:55:36.495Z,7.35
2018-09-15T20:00:30.836Z,7.42
2018-09-15T20:05:24.745Z,7.40
2018-09-15T20:10:19.753Z,8.00
2018-09-15T20:15:20.923Z,7.47
2018-09-15T20:20:13.179Z,8.03
2018-09-15T20:25:06.527Z,7.67
2018-09-15T20:30:00.410Z,7.87
2018-09-15T20:34:55.265Z,7.55
2018-09-15T20:39:49.845Z,8.60
2018-09-15T20:44:43.788Z,7.80
2018-09-15T20:49:38.659Z,8.38
2018-09-15T20:54:32.465Z,8.13
2018-09-15T20:59:27.970Z,8.28
2018-09-15T21:04:21.580Z,9.38
2018-09-15T21:09:15.530Z,8.58
2018-09-15T21:14:11.711Z,9.10
2018-09-15T21:19:07.838Z,8.93
2018-09-15T21:24:03.191Z,9.93
2018-09-15T21:28:58.070Z,9.15
2018-09-15T21:33:57.587Z,9.20
2018-09-15T21:38:52.068Z,9.30
2018-09-15T21:43:45.737Z,8.80
2018-09-15T21:48:39.414Z,9.58
2018-09-15T21:53:34.995Z,7.75
2018-09-15T21:58:29.179Z,8.18
2018-09-15T22:03:24.648Z,8.03
2018-09-15T22:08:18.692Z,7.47
2018-09-15T22:13:13.238Z,7.55
2018-09-15T22:18:08.275Z,8.68
2018-09-15T22:23:02.511Z,8.35
2018-09-15T22:27:55.875Z,9.03
2018-09-15T22:32:49.829Z,8.88
2018-09-15T22:37:47.002Z,9.38
2018-09-15T22:42:41.315Z,9.45
2018-09-15T22:47:38.888Z,8.93
2018-09-15T22:52:32.588Z,8.90
2018-09-15T22:57:26.581Z,8.25
2018-09-15T23:02:21.725Z,9.40
2018-09-15T23:07:15.334Z,9.50
2018-09-15T23:12:12.327Z,9.08
2018-09-15T23:17:06.349Z,9.18
2018-09-15T23:22:00.712Z,9.78
2018-09-15T23:26:54.363Z,9.30
2018-09-15T23:31:48.207Z,8.88
2018-09-15T23:36:41.416Z,9.75
2018-09-15T23:41:35.331Z,9.70
2018-09-15T23:46:29.426Z,9.10
2018-09-15T23:51:22.950Z,8.93
2018-09-15T23:56:16.150Z,9.30
